CMA CGM Aristote — MRPN4 — position and weather

sailwx.info

Track history (hours):
 
Tides and Currents Weather Stations Pressure Air Temp Water Temp Dewpoint Dewpoint Depression Visibility Wind Speed Wind Dir Waves Ship Positions

CMA CGM Aristote

Last reported at 2014-Nov-08 05:18 UTC. Time now 2014-Nov-23 19:00 UTC.
Position N 17°33' W 063°05'.
Warning: this ship's position is 15 days out of date.

Length 170 m; draft 8.9 m.

Type: Ship (hazmat cat A). MMSI: 235054581.

Date/timePositionNaut miles runAvg speedWind from/ knotsBaromVisibWave heightAir tempDewpointWater temp
2014-Nov-08 05:18N 17°33' W 063°05'1519.2
2014-Nov-08 04:31N 17°48' W 063°05'12 5.9
2014-Nov-08 02:24N 18°01' W 063°03'0 0.0
2014-Nov-08 00:15N 18°01' W 063°03'0 0.0
2014-Nov-07 23:33N 18°01' W 063°03'0 0.0
2014-Nov-07 22:18N 18°01' W 063°03'0 0.0
2014-Nov-07 21:30N 18°01' W 063°03'0 0.0
2014-Nov-07 20:33N 18°01' W 063°03'0 0.0
2014-Nov-07 19:03N 18°01' W 063°03'0 0.0
2014-Nov-07 18:06N 18°01' W 063°03'0 0.0
2014-Nov-07 16:27N 18°01' W 063°03'0 0.0
2014-Nov-07 15:21N 18°01' W 063°03'0 0.0
2014-Nov-07 14:27N 18°01' W 063°03'0 0.0
2014-Nov-07 13:10N 18°01' W 063°03'0 0.0
2014-Nov-07 12:30N 18°01' W 063°03'1 0.3
2014-Nov-07 10:31N 18°00' W 063°03'4 4.3
2014-Nov-07 09:33N 17°58' W 062°60'  
2014-Nov-02 19:20N 36°45' W 030°03'1519.1
2014-Nov-02 18:32N 36°51' W 029°45'4519.2
2014-Nov-02 16:10N 37°09' W 028°53'1419.3
2014-Nov-02 15:28N 37°15' W 028°37'1719.2
2014-Nov-02 14:33N 37°22' W 028°17'1919.3
2014-Nov-02 13:33N 37°29' W 027°55'1919.0
2014-Nov-02 12:33N 37°37' W 027°33'1919.4
2014-Nov-02 11:34N 37°44' W 027°10'1919.1
2014-Nov-02 10:34N 37°51' W 026°48'1919.0
2014-Nov-02 09:34N 37°58' W 026°26'1919.0
2014-Nov-02 08:34N 38°08' W 026°05'1918.9
2014-Nov-02 07:34N 38°19' W 025°46'1918.9
2014-Nov-02 06:34N 38°30' W 025°26'1919.0
2014-Nov-02 05:33N 38°42' W 025°06'1919.3
2014-Nov-02 04:33N 38°53' W 024°46'  
2014-Oct-30 21:33N 49°00' W 005°56'11818.9
2014-Oct-30 15:20N 49°55' W 003°16'1619.4
2014-Oct-30 14:30N 49°59' W 002°52'1718.4
2014-Oct-30 13:33N 50°03' W 002°26'1616.4
2014-Oct-30 12:33N 50°03' W 002°00'5717.0
2014-Oct-30 09:12N 49°42' W 000°38'1219.2
2014-Oct-30 08:33N 49°36' W 000°21'1515.6
2014-Oct-30 07:34N 49°30' E 000°01'6 6.0
2014-Oct-30 06:33N 49°29' E 000°10'0 0.0
2014-Oct-30 05:33N 49°29' E 000°10'0 0.0
2014-Oct-30 04:33N 49°29' E 000°10'0 0.0
2014-Oct-30 03:33N 49°29' E 000°10'0 0.0
2014-Oct-30 02:33N 49°29' E 000°10'0 0.0
2014-Oct-30 01:30N 49°29' E 000°10'0 0.0
2014-Oct-30 00:33N 49°29' E 000°10'0 0.0
2014-Oct-29 23:33N 49°29' E 000°10'0 0.0
2014-Oct-29 22:33N 49°29' E 000°10'0 0.0
2014-Oct-29 21:33N 49°29' E 000°10'0 0.0
2014-Oct-29 20:27N 49°29' E 000°10'0 0.0
2014-Oct-29 19:33N 49°29' E 000°10'0 0.0
2014-Oct-29 18:33N 49°29' E 000°10'0 0.0
2014-Oct-29 17:33N 49°29' E 000°10'0 0.0
2014-Oct-29 16:33N 49°29' E 000°10'0 0.0
2014-Oct-29 15:33N 49°29' E 000°10'0 0.0
2014-Oct-29 14:30N 49°29' E 000°10'0 0.0
2014-Oct-29 13:33N 49°29' E 000°10'0 0.0
2014-Oct-29 12:33N 49°29' E 000°10'0 0.0
2014-Oct-29 11:33N 49°29' E 000°10'0 0.0
2014-Oct-29 10:33N 49°29' E 000°10'0 0.0
2014-Oct-29 09:33N 49°29' E 000°10'0 0.0
2014-Oct-29 08:33N 49°29' E 000°10'0 0.0
2014-Oct-29 07:33N 49°29' E 000°10'0 0.0
2014-Oct-29 06:30N 49°29' E 000°10'0 0.0
2014-Oct-29 05:33N 49°29' E 000°10'  
Track history (hours):
 
Tides and Currents Weather Stations Pressure Air Temp Water Temp Dewpoint Dewpoint Depression Visibility Wind Speed Wind Dir Waves Ship Positions

CMA CGM Aristote

Last reported at 2014-Nov-08 05:18 UTC. Time now 2014-Nov-23 19:00 UTC.
Position N 17°33' W 063°05'.
Warning: this ship's position is 15 days out of date.

Length 170 m; draft 8.9 m.

Type: Ship (hazmat cat A). MMSI: 235054581.

Date/timePositionNaut miles runAvg speedWind from/ knotsBaromVisibWave heightAir tempDewpointWater temp
2014-Nov-08 05:18N 17°33' W 063°05'1519.2
2014-Nov-08 04:31N 17°48' W 063°05'12 5.9
2014-Nov-08 02:24N 18°01' W 063°03'0 0.0
2014-Nov-08 00:15N 18°01' W 063°03'0 0.0
2014-Nov-07 23:33N 18°01' W 063°03'0 0.0
2014-Nov-07 22:18N 18°01' W 063°03'0 0.0
2014-Nov-07 21:30N 18°01' W 063°03'0 0.0
2014-Nov-07 20:33N 18°01' W 063°03'0 0.0
2014-Nov-07 19:03N 18°01' W 063°03'0 0.0
2014-Nov-07 18:06N 18°01' W 063°03'0 0.0
2014-Nov-07 16:27N 18°01' W 063°03'0 0.0
2014-Nov-07 15:21N 18°01' W 063°03'0 0.0
2014-Nov-07 14:27N 18°01' W 063°03'0 0.0
2014-Nov-07 13:10N 18°01' W 063°03'0 0.0
2014-Nov-07 12:30N 18°01' W 063°03'1 0.3
2014-Nov-07 10:31N 18°00' W 063°03'4 4.3
2014-Nov-07 09:33N 17°58' W 062°60'  
2014-Nov-02 19:20N 36°45' W 030°03'1519.1
2014-Nov-02 18:32N 36°51' W 029°45'4519.2
2014-Nov-02 16:10N 37°09' W 028°53'1419.3
2014-Nov-02 15:28N 37°15' W 028°37'1719.2
2014-Nov-02 14:33N 37°22' W 028°17'1919.3
2014-Nov-02 13:33N 37°29' W 027°55'1919.0
2014-Nov-02 12:33N 37°37' W 027°33'1919.4
2014-Nov-02 11:34N 37°44' W 027°10'1919.1
2014-Nov-02 10:34N 37°51' W 026°48'1919.0
2014-Nov-02 09:34N 37°58' W 026°26'1919.0
2014-Nov-02 08:34N 38°08' W 026°05'1918.9
2014-Nov-02 07:34N 38°19' W 025°46'1918.9
2014-Nov-02 06:34N 38°30' W 025°26'1919.0
2014-Nov-02 05:33N 38°42' W 025°06'1919.3
2014-Nov-02 04:33N 38°53' W 024°46'  
2014-Oct-30 21:33N 49°00' W 005°56'11818.9
2014-Oct-30 15:20N 49°55' W 003°16'1619.4
2014-Oct-30 14:30N 49°59' W 002°52'1718.4
2014-Oct-30 13:33N 50°03' W 002°26'1616.4
2014-Oct-30 12:33N 50°03' W 002°00'5717.0
2014-Oct-30 09:12N 49°42' W 000°38'1219.2
2014-Oct-30 08:33N 49°36' W 000°21'1515.6
2014-Oct-30 07:34N 49°30' E 000°01'6 6.0
2014-Oct-30 06:33N 49°29' E 000°10'0 0.0
2014-Oct-30 05:33N 49°29' E 000°10'0 0.0
2014-Oct-30 04:33N 49°29' E 000°10'0 0.0
2014-Oct-30 03:33N 49°29' E 000°10'0 0.0
2014-Oct-30 02:33N 49°29' E 000°10'0 0.0
2014-Oct-30 01:30N 49°29' E 000°10'0 0.0
2014-Oct-30 00:33N 49°29' E 000°10'0 0.0
2014-Oct-29 23:33N 49°29' E 000°10'0 0.0
2014-Oct-29 22:33N 49°29' E 000°10'0 0.0
2014-Oct-29 21:33N 49°29' E 000°10'0 0.0
2014-Oct-29 20:27N 49°29' E 000°10'0 0.0
2014-Oct-29 19:33N 49°29' E 000°10'0 0.0
2014-Oct-29 18:33N 49°29' E 000°10'0 0.0
2014-Oct-29 17:33N 49°29' E 000°10'0 0.0
2014-Oct-29 16:33N 49°29' E 000°10'0 0.0
2014-Oct-29 15:33N 49°29' E 000°10'0 0.0
2014-Oct-29 14:30N 49°29' E 000°10'0 0.0
2014-Oct-29 13:33N 49°29' E 000°10'0 0.0
2014-Oct-29 12:33N 49°29' E 000°10'0 0.0
2014-Oct-29 11:33N 49°29' E 000°10'0 0.0
2014-Oct-29 10:33N 49°29' E 000°10'0 0.0
2014-Oct-29 09:33N 49°29' E 000°10'0 0.0
2014-Oct-29 08:33N 49°29' E 000°10'0 0.0
2014-Oct-29 07:33N 49°29' E 000°10'0 0.0
2014-Oct-29 06:30N 49°29' E 000°10'0 0.0
2014-Oct-29 05:33N 49°29' E 000°10'  

Dump ship's entire track history